Latest Weather Observations for Paraburdoo

IDW60801

Issued at 7:33 pm WST Monday 25 July 2016 (issued every 30 minutes, with the page automatically refreshed every 10 minutes)

About weather observations | Map of weather stations | Latest weather observations for WA | Other Formats
Station Details ID: 007185 Name: PARABURDOO AERO Lat: -23.17 Lon: 117.75 Height: 423.7 m
Data from the previous 72 hours. | See also: Recent months at Paraburdoo
Date/Time
WST
Temp
°C
App
Temp
°C
Dew
Point
°C
Rel
Hum
%
Delta-T
°C
Wind Press
QNH
hPa
Press
MSL
hPa
Rain since
9am
mm
Dir  Spd
km/h
Gust
km/h
Spd
kts
Gust
kts
25/07:30pm 17.6 15.6 10.2 62 4.0 SE 11 11 6 6 1020.5 1019.5 0.2
25/07:00pm 18.1 16.5 10.2 60 4.3 E 9 11 5 6 1020.0 1019.0 0.2
25/06:30pm 19.1 17.3 9.6 54 5.1 ENE 9 11 5 6 1019.7 1018.7 0.2
25/06:00pm 20.1 17.8 9.1 49 5.9 ENE 11 13 6 7 1019.5 1018.5 0.2
25/05:30pm 21.6 18.8 8.5 43 7.0 E 13 17 7 9 1019.3 1018.3 0.2
25/05:00pm 22.1 19.3 8.6 42 7.3 E 13 15 7 8 1019.1 1018.0 0.2
25/04:30pm 22.5 19.9 9.3 43 7.2 E 13 17 7 9 1018.9 1017.8 0.2
25/04:00pm 22.2 19.5 9.0 43 7.2 E 13 17 7 9 1018.9 1017.8 0.2
25/03:30pm 22.4 20.0 8.5 41 7.5 ESE 11 15 6 8 1019.0 1017.9 0.2
25/03:00pm 22.3 19.9 8.8 42 7.3 ESE 11 17 6 9 1019.2 1018.1 0.2
25/02:30pm 22.0 19.5 8.2 41 7.4 ESE 11 17 6 9 1019.3 1018.3 0.2
25/02:00pm 22.5 20.6 9.0 42 7.3 ESE 9 19 5 10 1019.5 1018.5 0.2
25/01:30pm 21.3 18.3 7.5 41 7.3 SE 13 19 7 10 1019.6 1018.6 0.2
25/01:00pm 21.5 19.5 8.7 44 6.9 SE 9 15 5 8 1019.9 1018.9 0.2
25/12:30pm 20.5 18.4 8.2 45 6.5 E 9 15 5 8 1020.6 1019.6 0.2
25/12:00pm 20.1 17.6 8.4 47 6.2 ENE 11 19 6 10 1021.2 1020.1 0.2
25/11:30am 19.8 17.1 8.8 49 5.9 ENE 13 20 7 11 1021.5 1020.5 0.2
25/11:00am 19.1 16.3 8.4 50 5.6 E 13 20 7 11 1022.0 1021.0 0.0
25/10:30am 18.7 15.2 8.9 53 5.2 ENE 17 22 9 12 1022.2 1021.2 0.0
25/10:00am 17.7 14.1 8.3 54 4.9 E 17 26 9 14 1022.4 1021.4 0.0
25/09:30am 16.9 13.0 7.3 53 4.9 E 17 20 9 11 1022.4 1021.4 0.0
25/09:00am 16.1 12.6 7.3 56 4.5 E 15 19 8 10 1022.3 1021.3 0.2
25/08:30am 15.4 11.6 7.4 59 4.1 E 17 22 9 12 1021.9 1020.9 0.2
25/08:00am 14.9 11.6 8.2 64 3.4 ESE 15 20 8 11 1021.7 1020.7 0.2
25/07:30am 14.6 11.7 8.1 65 3.3 E 13 19 7 10 1021.4 1020.4 0.2
25/07:00am 14.4 11.1 8.1 66 3.2 ESE 15 20 8 11 1021.1 1020.0 0.2
25/06:30am 14.1 12.4 9.7 75 2.3 E 9 13 5 7 1020.8 1019.8 0.2
25/06:00am 13.6 12.6 11.0 84 1.4 NE 7 9 4 5 1020.4 1019.4 0.2
25/05:30am 14.1 11.5 9.5 74 2.4 ENE 13 15 7 8 1020.0 1019.0 0.2
25/05:00am 14.3 11.6 9.1 71 2.7 E 13 17 7 9 1019.9 1018.9 0.2
25/04:30am 14.4 10.6 9.2 71 2.7 E 19 26 10 14 1019.8 1018.8 0.2
25/04:00am 14.5 10.8 9.3 71 2.7 ESE 19 26 10 14 1019.7 1018.7 0.2
25/03:30am 14.5 11.8 10.3 76 2.2 E 15 20 8 11 1019.9 1018.9 0.2
25/03:00am 13.5 12.7 12.9 96 0.3 ENE 9 13 5 7 1020.0 1019.0 0.2
25/02:30am 13.5 12.6 12.7 95 0.4 ENE 9 11 5 6 1020.2 1019.2 0.2
25/02:00am 13.6 12.6 12.3 92 0.7 ENE 9 9 5 5 1020.2 1019.2 0.2
25/01:30am 14.2 13.1 11.9 86 1.3 E 9 11 5 6 1020.5 1019.5 0.2
25/01:00am 14.1 13.0 12.0 87 1.2 ENE 9 11 5 6 1020.7 1019.7 0.2
25/12:30am 14.6 13.9 11.9 84 1.5 E 7 9 4 5 1020.8 1019.8 0.2
25/12:00am 14.3 13.7 12.2 87 1.2 E 7 9 4 5 1021.1 1020.0 0.2
 
Date/Time
WST
Temp
°C
App
Temp
°C
Dew
Point
°C
Rel
Hum
%
Delta-T
°C
Wind Press
QNH
hPa
Press
MSL
hPa
Rain since
9am
mm
Dir  Spd
km/h
Gust
km/h
Spd
kts
Gust
kts
24/11:30pm 14.8 13.7 11.8 82 1.7 ENE 9 11 5 6 1021.2 1020.1 0.2
24/11:00pm 15.2 13.4 12.2 82 1.7 NE 13 17 7 9 1021.4 1020.4 0.2
24/10:30pm 15.4 13.7 12.3 82 1.7 NE 13 15 7 8 1021.6 1020.6 0.2
24/10:00pm 15.6 14.1 12.0 79 2.0 NE 11 15 6 8 1021.8 1020.8 0.2
24/09:30pm 15.8 13.5 11.8 77 2.2 NE 15 19 8 10 1021.7 1020.7 0.2
24/09:00pm 15.7 14.1 11.7 77 2.2 NE 11 13 6 7 1021.8 1020.8 0.2
24/08:30pm 15.8 14.6 11.6 76 2.3 ENE 9 11 5 6 1022.0 1021.0 0.2
24/08:00pm 16.1 14.1 11.5 74 2.5 ENE 13 15 7 8 1021.9 1020.9 0.2
24/07:30pm 16.3 14.4 11.9 75 2.4 ENE 13 17 7 9 1021.9 1020.9 0.2
24/07:00pm 16.5 14.9 11.6 73 2.7 ENE 11 15 6 8 1021.3 1020.2 0.2
24/06:30pm 16.6 15.0 11.7 73 2.7 ENE 11 15 6 8 1020.9 1019.9 0.2
24/06:00pm 16.8 15.2 11.5 71 2.9 ENE 11 13 6 7 1020.4 1019.4 0.2
24/05:30pm 17.2 15.7 10.6 65 3.6 ENE 9 15 5 8 1020.4 1019.4 0.2
24/05:00pm 17.4 15.1 10.5 64 3.8 ENE 13 19 7 10 1020.3 1019.3 0.2
24/04:30pm 17.6 15.1 10.9 65 3.7 E 15 20 8 11 1020.0 1019.0 0.2
24/04:00pm 17.4 14.5 11.0 66 3.5 ENE 17 20 9 11 1019.8 1018.8 0.2
24/03:30pm 17.2 15.5 11.2 68 3.3 E 11 15 6 8 1019.7 1018.7 0.2
24/03:00pm 16.8 14.2 10.6 67 3.4 ESE 15 20 8 11 1019.5 1018.5 0.2
24/02:30pm 16.9 13.5 10.7 67 3.4 SE 19 24 10 13 1019.7 1018.7 0.2
24/02:00pm 17.0 14.6 11.5 70 3.0 ESE 15 19 8 10 1019.7 1018.7 0.2
24/01:30pm 17.4 14.7 10.5 64 3.8 E 15 20 8 11 1020.1 1019.1 0.2
24/01:00pm 17.3 13.6 10.2 63 3.8 ENE 20 32 11 17 1020.1 1019.1 0.2
24/12:30pm 16.9 12.9 10.3 65 3.6 ENE 22 30 12 16 1020.7 1019.7 0.2
24/12:00pm 16.6 13.3 10.9 69 3.1 E 19 26 10 14 1020.9 1019.9 0.2
24/11:30am 16.0 12.6 11.2 73 2.6 E 20 26 11 14 1021.4 1020.4 0.2
24/11:00am 15.4 12.2 11.2 76 2.3 E 19 26 10 14 1022.1 1021.1 0.2
24/10:30am 15.2 11.9 11.0 76 2.3 E 19 26 10 14 1022.2 1021.2 0.2
24/10:00am 14.7 11.0 10.3 75 2.3 E 20 26 11 14 1022.3 1021.3 0.2
24/09:30am 14.3 10.8 10.1 76 2.2 E 19 28 10 15 1022.5 1021.5 0.0
24/09:00am 14.7 11.4 9.7 72 2.6 E 17 26 9 14 1022.1 1021.1 2.0
24/08:30am 14.9 10.9 9.1 68 3.0 E 20 30 11 16 1021.8 1020.8 2.0
24/08:00am 14.7 11.7 9.3 70 2.8 ENE 15 24 8 13 1021.4 1020.4 2.0
24/07:30am 14.4 10.5 9.4 72 2.6 E 20 33 11 18 1020.7 1019.7 2.0
24/07:00am 14.1 10.4 9.5 74 2.4 ESE 19 26 10 14 1020.3 1019.3 2.0
24/06:30am 14.1 11.2 9.7 75 2.3 E 15 20 8 11 1020.3 1019.3 2.0
24/06:00am 14.2 11.5 10.2 77 2.1 E 15 24 8 13 1020.0 1019.0 2.0
24/05:30am 13.8 12.6 11.7 87 1.1 ENE 9 11 5 6 1019.8 1018.8 2.0
24/05:00am 13.9 10.7 11.2 84 1.5 E 19 24 10 13 1019.6 1018.6 2.0
24/04:30am 14.1 11.3 11.4 84 1.5 ESE 17 22 9 12 1019.7 1018.7 2.0
24/04:00am 14.3 11.6 11.8 85 1.4 E 17 26 9 14 1019.5 1018.5 2.0
24/03:30am 13.7 13.1 13.4 98 0.2 NE 9 11 5 6 1019.8 1018.8 2.0
24/03:00am 14.3 12.2 12.3 88 1.1 ESE 15 20 8 11 1019.6 1018.6 2.0
24/02:30am 14.0 15.2 13.7 98 0.2 CALM 0 0 0 0 1019.6 1018.6 2.0
24/02:00am 14.0 15.2 13.7 98 0.2 CALM 0 0 0 0 1020.1 1019.1 2.0
24/01:30am 14.2 14.3 13.9 98 0.2 S 6 9 3 5 1019.8 1018.8 2.0
24/01:00am 14.3 14.1 13.7 96 0.3 SSE 7 11 4 6 1019.8 1018.8 2.0
24/12:30am 13.9 12.9 13.4 97 0.3 SE 11 13 6 7 1019.9 1018.9 2.0
24/12:00am 13.7 13.6 13.2 97 0.3 SE 6 7 3 4 1020.4 1019.4 2.0
 
Date/Time
WST
Temp
°C
App
Temp
°C
Dew
Point
°C
Rel
Hum
%
Delta-T
°C
Wind Press
QNH
hPa
Press
MSL
hPa
Rain since
9am
mm
Dir  Spd
km/h
Gust
km/h
Spd
kts
Gust
kts
23/11:30pm 14.1 13.9 13.5 96 0.3 SE 7 11 4 6 1020.5 1019.5 2.0
23/11:00pm 14.2 12.7 13.2 94 0.6 ENE 13 17 7 9 1020.6 1019.6 2.0
23/10:30pm 14.2 13.7 13.9 98 0.2 NE 9 13 5 7 1020.9 1019.9 2.0
23/10:00pm 14.2 13.6 13.6 96 0.3 ENE 9 11 5 6 1020.8 1019.8 2.0
23/09:30pm 14.1 13.0 13.1 94 0.6 ESE 11 17 6 9 1020.6 1019.6 2.0
23/09:00pm 14.2 13.3 13.6 96 0.3 E 11 15 6 8 1020.4 1019.4 2.0
23/08:30pm 14.3 12.8 13.2 93 0.6 ESE 13 20 7 11 1020.4 1019.4 2.0
23/08:00pm 14.1 13.1 13.5 96 0.3 E 11 15 6 8 1020.2 1019.2 2.0
23/07:30pm 14.1 13.6 13.9 99 0.1 SE 9 15 5 8 1019.9 1018.9 2.0
23/07:00pm 14.2 13.4 13.9 98 0.2 SE 11 17 6 9 1019.4 1018.4 2.0
23/06:30pm 14.3 12.7 14.0 98 0.2 ESE 15 20 8 11 1018.8 1017.7 2.0
23/06:00pm 14.4 11.9 14.1 98 0.2 ENE 20 28 11 15 1018.6 1017.5 2.0
23/05:30pm 14.3 12.7 14.0 98 0.2 ENE 15 22 8 12 1018.8 1017.7 2.0
23/05:00pm 14.3 14.2 13.8 97 0.3 SE 7 9 4 5 1019.5 1018.5 1.8
23/04:30pm 14.4 13.0 13.3 93 0.6 SSE 13 20 7 11 1019.5 1018.5 1.6
23/04:00pm 14.9 12.9 13.8 93 0.6 S 17 24 9 13 1019.5 1018.5 1.6
23/03:30pm 15.4 12.8 14.8 96 0.4 S 22 28 12 15 1019.1 1018.0 1.6
23/03:00pm 16.1 14.8 15.8 98 0.2 SSW 17 24 9 13 1019.2 1018.1 1.2
23/02:30pm 16.9 16.6 16.4 97 0.3 S 13 17 7 9 1018.9 1017.8 1.2
23/02:00pm 16.8 15.8 16.5 98 0.2 S 17 22 9 12 1018.8 1017.7 1.2
23/01:30pm 17.0 17.3 15.9 93 0.7 S 9 13 5 7 1019.2 1018.1 1.2
23/01:00pm 17.2 17.2 16.2 94 0.6 ESE 11 17 6 9 1018.7 1017.6 1.2
23/12:30pm 16.7 15.7 15.7 94 0.6 NE 15 17 8 9 1019.0 1017.9 1.2
23/12:00pm 16.8 17.0 14.8 88 1.2 ENE 7 11 4 6 1019.5 1018.5 1.0
23/11:30am 16.5 15.5 14.7 89 1.1 NE 13 17 7 9 1019.7 1018.7 1.0
23/11:00am 16.1 15.9 14.8 92 0.8 ENE 9 11 5 6 1020.0 1019.0 0.8
23/10:30am 16.1 16.2 13.9 87 1.3 S 6 9 3 5 1020.8 1019.8 0.6
23/10:00am 16.7 15.8 12.7 77 2.3 S 9 13 5 7 1021.1 1020.0 0.0
23/09:30am 16.6 15.4 11.7 73 2.7 ESE 9 13 5 7 1020.7 1019.7 0.0
23/09:00am 16.1 15.6 12.7 80 1.9 ESE 7 11 4 6 1020.5 1019.5 0.6
23/08:30am 15.6 14.2 13.3 86 1.3 ENE 13 19 7 10 1020.5 1019.5 0.6
23/08:00am 15.3 14.6 13.2 87 1.2 E 9 11 5 6 1020.0 1019.0 0.6
23/07:30am 14.8 14.3 13.7 93 0.6 NE 9 11 5 6 1019.8 1018.8 0.6
23/07:00am 14.8 14.6 13.5 92 0.7 ENE 7 11 4 6 1019.6 1018.6 0.6
23/06:30am 14.8 14.5 12.8 88 1.1 E 6 9 3 5 1019.3 1018.3 0.6
23/06:00am 14.9 14.5 12.9 88 1.1 NE 7 9 4 5 1019.2 1018.1 0.6
23/05:30am 14.9 14.3 12.4 85 1.4 ENE 7 9 4 5 1018.7 1017.6 0.6
23/05:00am 15.1 13.0 11.3 78 2.1 E 13 17 7 9 1018.2 1017.2 0.6
23/04:30am 14.8 14.1 13.2 90 0.9 SE 9 9 5 5 1018.9 1017.8 0.6
23/04:00am 14.9 15.7 13.6 92 0.7 S 2 9 1 5 1019.5 1018.5 0.6
23/03:30am 14.7 15.4 13.4 92 0.7 S 2 6 1 3 1019.5 1018.5 0.6
23/03:00am 14.8 14.7 13.8 94 0.6 ESE 7 9 4 5 1019.3 1018.3 0.6
23/02:30am 14.8 14.3 13.8 94 0.6 ESE 9 13 5 7 1019.7 1018.7 0.6
23/02:00am 15.0 15.0 13.7 92 0.7 ENE 6 9 3 5 1020.1 1019.1 0.6
23/01:30am 14.9 14.6 14.3 96 0.3 NE 9 11 5 6 1020.1 1019.1 0.6
23/01:00am 14.9 13.9 13.4 91 0.9 NE 11 11 6 6 1019.8 1018.8 0.6
23/12:30am 15.3 14.8 12.1 81 1.8 E 6 7 3 4 1020.0 1019.0 0.6
23/12:00am 15.4 14.8 12.2 81 1.8 NE 7 9 4 5 1020.0 1019.0 0.6
 
Date/Time
WST
Temp
°C
App
Temp
°C
Dew
Point
°C
Rel
Hum
%
Delta-T
°C
Wind Press
QNH
hPa
Press
MSL
hPa
Rain since
9am
mm
Dir  Spd
km/h
Gust
km/h
Spd
kts
Gust
kts
22/11:30pm 15.5 14.9 11.7 78 2.1 ESE 6 7 3 4 1020.1 1019.1 0.6
22/11:00pm 15.4 14.3 11.8 79 2.0 NE 9 11 5 6 1020.2 1019.2 0.6
22/10:30pm 15.3 14.1 11.7 79 2.0 SSE 9 11 5 6 1020.2 1019.2 0.6
22/10:00pm 15.4 14.8 11.8 79 2.0 ENE 6 9 3 5 1020.5 1019.5 0.6
22/09:30pm 15.4 13.8 11.4 77 2.2 ENE 11 15 6 8 1020.3 1019.3 0.6
22/09:00pm 15.3 14.1 11.7 79 2.0 ENE 9 11 5 6 1020.2 1019.2 0.6
22/08:30pm 15.3 13.7 11.7 79 2.0 NE 11 13 6 7 1020.1 1019.1 0.6
22/08:00pm 15.4 13.9 11.8 79 2.0 NE 11 15 6 8 1020.0 1019.0 0.6

Other Formats:

Comma delimited format used in spreadsheet applications
http://www.bom.gov.au/fwo/IDW60801/IDW60801.94316.axf

JavaScript Object Notation format (JSON) in row-major order
http://www.bom.gov.au/fwo/IDW60801/IDW60801.94316.json